Time;durP1;ratioP1;P1;durP2;ratioP2;P2;SDS_P1;SDS_P2;PMS_P1;PMS_P2;Temp;Humidity;BMP_temperature;BMP_pressure;BME280_temperature;BME280_humidity;BME280_pressure;Samples;Min_cycle;Max_cycle;Signal;HPM_P1;HPM_P2
2023/07/18 00:00:38;;;;;;;0.95;0.90;;;;;;;22.10;76.40;99773.16;5113912;28;20388;-59
2023/07/18 00:03:07;;;;;;;0.50;0.50;;;;;;;22.12;76.14;99779.16;5114329;28;20076;-59
2023/07/18 00:05:37;;;;;;;0.85;0.82;;;;;;;22.09;76.03;99774.09;5114280;28;20067;-59
2023/07/18 00:08:06;;;;;;;1.10;0.93;;;;;;;22.04;76.03;99765.66;5114270;28;20105;-59
2023/07/18 00:10:35;;;;;;;1.23;1.13;;;;;;;21.97;76.37;99765.09;5114065;28;20036;-59
2023/07/18 00:13:05;;;;;;;0.55;0.55;;;;;;;22.01;76.22;99771.00;5113982;28;20048;-59
2023/07/18 00:15:35;;;;;;;0.90;0.70;;;;;;;21.97;75.93;99772.06;5114200;28;20399;-59
2023/07/18 00:18:04;;;;;;;1.10;0.90;;;;;;;21.90;76.01;99778.44;5114163;28;20043;-59
2023/07/18 00:20:33;;;;;;;0.57;0.57;;;;;;;21.84;76.08;99778.69;5114102;28;20100;-59
2023/07/18 00:23:02;;;;;;;1.02;0.90;;;;;;;21.83;76.00;99774.41;5114004;28;20036;-59
2023/07/18 00:25:31;;;;;;;4.72;1.33;;;;;;;21.81;75.96;99778.84;5114277;28;20067;-59
2023/07/18 00:28:00;;;;;;;1.38;1.02;;;;;;;21.81;76.08;99792.66;5114292;28;20040;-59
2023/07/18 00:30:30;;;;;;;0.63;0.63;;;;;;;21.76;75.96;99796.38;5114201;28;20150;-59
2023/07/18 00:33:00;;;;;;;1.80;0.55;;;;;;;21.61;76.26;99791.84;5113892;28;20046;-59
2023/07/18 00:35:29;;;;;;;0.90;0.90;;;;;;;21.58;76.40;99802.38;5112996;28;20555;-60
2023/07/18 00:37:58;;;;;;;1.30;0.90;;;;;;;21.54;76.53;99800.84;5113268;28;20434;-59
2023/07/18 00:40:27;;;;;;;0.63;0.63;;;;;;;21.57;76.39;99800.72;5112731;28;20431;-59
2023/07/18 00:42:57;;;;;;;0.98;0.88;;;;;;;21.52;76.64;99808.69;5112967;28;20071;-58
2023/07/18 00:45:26;;;;;;;0.80;0.80;;;;;;;21.52;76.60;99800.06;5112942;28;20106;-58
2023/07/18 00:47:56;;;;;;;0.63;0.63;;;;;;;21.56;76.46;99799.00;5113809;28;20046;-58
2023/07/18 00:50:29;;;;;;;1.15;0.85;;;;;;;21.54;76.27;99795.63;5113775;28;20058;-58
2023/07/18 00:53:00;;;;;;;0.95;0.90;;;;;;;21.49;76.29;99795.84;5112431;28;20040;-58
2023/07/18 00:55:31;;;;;;;0.82;0.70;;;;;;;21.49;76.53;99797.59;5113783;28;20100;-58
2023/07/18 00:58:03;;;;;;;0.98;0.85;;;;;;;21.45;76.29;99794.25;5113746;28;20074;-58
2023/07/18 01:00:32;;;;;;;1.45;1.27;;;;;;;21.47;76.64;99799.41;5112539;28;20048;-58
2023/07/18 01:03:01;;;;;;;1.43;1.00;;;;;;;21.47;76.13;99804.59;5112816;28;20046;-58
2023/07/18 01:05:33;;;;;;;2.35;0.80;;;;;;;21.43;76.31;99806.47;5113586;28;20101;-58
2023/07/18 01:08:03;;;;;;;0.50;0.50;;;;;;;21.42;76.51;99802.22;5112496;28;20044;-58
2023/07/18 01:10:33;;;;;;;0.63;0.63;;;;;;;21.36;76.46;99800.72;5113669;28;20067;-58
2023/07/18 01:13:02;;;;;;;0.60;0.60;;;;;;;21.17;76.88;99797.19;5117101;28;20401;-58
2023/07/18 01:15:32;;;;;;;0.50;0.50;;;;;;;21.15;76.83;99793.84;5117385;28;20126;-58
2023/07/18 01:18:03;;;;;;;0.77;0.65;;;;;;;21.01;77.09;99795.28;5116287;28;20039;-58
2023/07/18 01:20:36;;;;;;;2.13;1.00;;;;;;;20.94;77.42;99788.66;5116195;28;20047;-58
2023/07/18 01:23:06;;;;;;;0.73;0.50;;;;;;;20.83;77.46;99796.88;5117413;28;20035;-58
2023/07/18 01:25:36;;;;;;;1.00;0.85;;;;;;;20.76;77.84;99799.75;5117252;28;20058;-58
2023/07/18 01:28:08;;;;;;;0.65;0.65;;;;;;;20.81;78.07;99803.88;5116368;28;20050;-58
2023/07/18 01:30:40;;;;;;;0.93;0.77;;;;;;;20.88;77.98;99794.94;5117256;28;20044;-58
2023/07/18 01:33:09;;;;;;;0.82;0.75;;;;;;;20.88;77.98;99794.06;5116192;28;20390;-58
2023/07/18 01:35:38;;;;;;;1.08;1.05;;;;;;;20.83;78.20;99803.84;5115795;28;20036;-58
2023/07/18 01:38:09;;;;;;;0.90;0.82;;;;;;;20.87;78.14;99802.78;5117031;28;20048;-61
2023/07/18 01:40:38;;;;;;;1.02;0.93;;;;;;;20.81;77.90;99803.03;5116080;28;20054;-60
2023/07/18 01:43:07;;;;;;;0.80;0.80;;;;;;;20.81;78.20;99798.69;5117237;28;20039;-61
2023/07/18 01:45:38;;;;;;;1.20;1.10;;;;;;;20.80;78.06;99797.00;5116896;28;20121;-60
2023/07/18 01:48:07;;;;;;;0.82;0.80;;;;;;;20.88;78.15;99804.47;5117185;28;20048;-60
2023/07/18 01:50:36;;;;;;;0.77;0.77;;;;;;;20.86;77.94;99811.47;5116836;28;20538;-61
2023/07/18 01:53:05;;;;;;;0.63;0.63;;;;;;;20.85;78.03;99815.81;5115851;28;20036;-60
2023/07/18 01:55:36;;;;;;;1.17;1.08;;;;;;;20.85;78.10;99821.00;5116686;28;20047;-60
2023/07/18 01:58:05;;;;;;;0.60;0.60;;;;;;;20.76;77.99;99828.31;5115556;28;20493;-60
2023/07/18 02:00:35;;;;;;;0.60;0.60;;;;;;;20.66;78.01;99835.59;5115408;28;20043;-61
2023/07/18 02:03:05;;;;;;;1.20;0.90;;;;;;;20.59;77.92;99828.97;5116584;28;20093;-60
2023/07/18 02:05:35;;;;;;;0.60;0.60;;;;;;;20.45;78.41;99836.44;5115686;28;20040;-60
2023/07/18 02:08:04;;;;;;;1.38;1.23;;;;;;;20.24;78.60;99834.66;5116725;28;20461;-60
2023/07/18 02:10:35;;;;;;;0.98;0.95;;;;;;;20.21;78.87;99838.19;5115806;28;20043;-60
2023/07/18 02:13:04;;;;;;;1.83;1.15;;;;;;;20.17;79.11;99846.13;5115191;28;20536;-60
2023/07/18 02:15:34;;;;;;;0.77;0.77;;;;;;;20.04;79.13;99831.03;5116611;28;20043;-60
2023/07/18 02:18:06;;;;;;;1.15;1.02;;;;;;;20.02;79.41;99843.22;5116249;28;20134;-60
2023/07/18 02:20:35;;;;;;;1.00;0.80;;;;;;;19.97;79.67;99839.09;5115355;28;20512;-60
2023/07/18 02:23:04;;;;;;;1.23;1.13;;;;;;;19.92;79.85;99836.66;5116119;28;20403;-61
2023/07/18 02:25:33;;;;;;;0.50;0.50;;;;;;;19.86;80.25;99826.53;5116109;28;20554;-60
2023/07/18 02:28:03;;;;;;;1.05;0.95;;;;;;;19.83;80.23;99826.63;5114803;28;20115;-60
2023/07/18 02:30:33;;;;;;;2.33;1.48;;;;;;;19.80;80.21;99826.75;5116397;27;20047;-61
2023/07/18 02:33:04;;;;;;;1.85;1.27;;;;;;;19.75;80.67;99827.78;5115885;28;20043;-61
2023/07/18 02:35:33;;;;;;;0.52;0.52;;;;;;;19.68;80.68;99822.00;5115596;28;20126;-60
2023/07/18 02:38:02;;;;;;;1.65;1.08;;;;;;;19.77;81.11;99826.84;5116114;28;20130;-61
2023/07/18 02:40:32;;;;;;;0.60;0.60;;;;;;;19.92;81.22;99821.13;5115822;28;20059;-60
2023/07/18 02:43:00;;;;;;;3.00;1.42;;;;;;;20.01;81.29;99831.13;5115799;28;20051;-60
2023/07/18 02:45:31;;;;;;;0.63;0.63;;;;;;;20.11;81.38;99825.66;5116010;28;20055;-60
2023/07/18 02:48:00;;;;;;;1.50;1.08;;;;;;;20.16;81.50;99839.25;5114987;28;20507;-60
2023/07/18 02:50:29;;;;;;;4.32;0.85;;;;;;;20.12;81.39;99838.53;5114412;28;20036;-60
2023/07/18 02:52:58;;;;;;;2.55;1.17;;;;;;;20.08;81.41;99840.38;5114302;28;20040;-60
2023/07/18 02:55:27;;;;;;;1.33;1.05;;;;;;;20.08;81.45;99851.66;5115523;28;20067;-60
2023/07/18 02:57:56;;;;;;;0.63;0.63;;;;;;;20.12;81.37;99868.78;5115699;28;20424;-60
2023/07/18 03:00:26;;;;;;;1.08;0.98;;;;;;;20.11;81.64;99873.13;5115393;28;20047;-60
2023/07/18 03:02:57;;;;;;;1.10;0.77;;;;;;;20.06;81.45;99882.81;5114498;28;20508;-60
2023/07/18 03:05:27;;;;;;;1.25;1.15;;;;;;;20.03;81.73;99875.97;5115337;28;20077;-61
2023/07/18 03:07:56;;;;;;;0.80;0.75;;;;;;;20.01;81.75;99882.16;5114419;28;20040;-61
2023/07/18 03:10:24;;;;;;;1.40;1.20;;;;;;;19.98;81.80;99877.06;5114100;28;20058;-60
2023/07/18 03:12:53;;;;;;;1.60;1.15;;;;;;;19.94;81.97;99884.09;5113539;28;20078;-61
2023/07/18 03:15:22;;;;;;;0.63;0.63;;;;;;;19.86;82.03;99883.53;5113917;28;20067;-60
2023/07/18 03:17:51;;;;;;;1.25;1.15;;;;;;;19.75;81.87;99879.59;5114176;28;20072;-60
2023/07/18 03:20:24;;;;;;;0.55;0.55;;;;;;;19.68;81.66;99878.97;5115166;28;20051;-60
2023/07/18 03:22:53;;;;;;;0.73;0.73;;;;;;;19.69;81.50;99878.09;5114166;28;20043;-60
2023/07/18 03:25:22;;;;;;;0.73;0.73;;;;;;;19.74;81.05;99875.34;5114877;28;20051;-60
2023/07/18 03:27:52;;;;;;;1.27;1.17;;;;;;;19.59;80.87;99874.13;5113641;28;20039;-60
2023/07/18 03:30:21;;;;;;;0.50;0.50;;;;;;;19.47;80.97;99874.53;5113563;28;20044;-60
2023/07/18 03:32:51;;;;;;;0.70;0.70;;;;;;;19.42;81.26;99867.81;5113600;28;20119;-60
2023/07/18 03:35:21;;;;;;;1.15;1.05;;;;;;;19.46;81.49;99872.81;5114040;28;20071;-60
2023/07/18 03:37:51;;;;;;;0.70;0.70;;;;;;;19.52;81.53;99883.00;5114969;28;20377;-60
2023/07/18 03:40:23;;;;;;;0.80;0.80;;;;;;;19.53;81.43;99878.66;5114959;28;20098;-60
2023/07/18 03:42:52;;;;;;;0.75;0.73;;;;;;;19.48;81.72;99876.25;5114950;28;20044;-60
2023/07/18 03:45:21;;;;;;;1.37;1.27;;;;;;;19.39;82.07;99871.34;5113422;28;20485;-60
2023/07/18 03:47:50;;;;;;;1.23;1.13;;;;;;;19.41;82.53;99879.94;5114584;28;20082;-60
2023/07/18 03:50:18;;;;;;;0.77;0.77;;;;;;;19.54;82.68;99882.94;5114452;28;20093;-60
2023/07/18 03:52:47;;;;;;;1.98;1.55;;;;;;;19.71;82.82;99878.88;5114321;28;20288;-60
2023/07/18 03:55:17;;;;;;;6.53;1.13;;;;;;;19.89;82.73;99880.00;5114648;28;20493;-61
2023/07/18 03:57:46;;;;;;;4.55;1.85;;;;;;;20.01;82.47;99876.97;5114449;28;20044;-60
2023/07/18 04:00:17;;;;;;;0.50;0.50;;;;;;;20.10;82.14;99878.38;5114252;28;20044;-61
2023/07/18 04:02:49;;;;;;;1.50;1.23;;;;;;;20.19;81.94;99875.44;5114333;28;20279;-60
2023/07/18 04:05:19;;;;;;;0.70;0.70;;;;;;;20.22;81.49;99876.22;5114913;28;20043;-61
2023/07/18 04:07:48;;;;;;;0.75;0.75;;;;;;;20.29;81.38;99875.09;5114525;28;20064;-60
2023/07/18 04:10:18;;;;;;;0.50;0.50;;;;;;;20.32;81.00;99871.53;5114710;28;20039;-61
2023/07/18 04:12:47;;;;;;;1.10;1.00;;;;;;;20.31;80.80;99869.81;5114044;28;20154;-61
2023/07/18 04:15:16;;;;;;;2.30;1.67;;;;;;;20.26;80.78;99871.75;5114493;28;20068;-61
2023/07/18 04:17:46;;;;;;;3.50;0.80;;;;;;;20.23;80.85;99871.88;5114089;28;20047;-61
2023/07/18 04:20:19;;;;;;;2.60;0.80;;;;;;;20.25;80.75;99865.72;5114332;28;20044;-60
2023/07/18 04:22:49;;;;;;;1.77;1.58;;;;;;;20.33;80.79;99883.56;5114034;28;20058;-60
2023/07/18 04:25:20;;;;;;;0.75;0.70;;;;;;;20.33;80.61;99883.56;5114426;28;20039;-61
2023/07/18 04:27:49;;;;;;;1.13;0.90;;;;;;;20.44;80.70;99887.44;5114359;28;20093;-60
2023/07/18 04:30:17;;;;;;;1.80;1.00;;;;;;;20.50;80.48;99891.56;5113950;28;20044;-61
2023/07/18 04:32:46;;;;;;;0.80;0.80;;;;;;;20.54;80.56;99894.00;5113880;28;20044;-61
2023/07/18 04:35:16;;;;;;;0.63;0.63;;;;;;;20.70;80.39;99896.84;5112959;28;20039;-61
2023/07/18 04:37:45;;;;;;;1.38;1.25;;;;;;;20.68;80.07;99890.91;5114743;28;20389;-61
2023/07/18 04:40:15;;;;;;;3.35;0.98;;;;;;;20.71;79.87;99898.53;5114162;28;20039;-61
2023/07/18 04:42:45;;;;;;;0.52;0.43;;;;;;;20.75;80.08;99894.94;5114084;28;20189;-61
2023/07/18 04:45:14;;;;;;;0.65;0.65;;;;;;;20.85;80.11;99900.63;5114794;28;20055;-61
2023/07/18 04:47:42;;;;;;;0.90;0.90;;;;;;;21.03;79.47;99894.69;5117983;28;20093;-61
2023/07/18 04:50:12;;;;;;;0.88;0.88;;;;;;;21.19;79.26;99894.03;5118270;28;20773;-61
2023/07/18 04:52:40;;;;;;;0.63;0.63;;;;;;;21.24;78.85;99906.84;5117883;28;20052;-61
2023/07/18 04:55:10;;;;;;;1.25;1.05;;;;;;;21.33;78.63;99906.47;5118382;28;20035;-61
2023/07/18 04:57:39;;;;;;;2.05;1.45;;;;;;;21.38;78.92;99906.28;5118130;28;20043;-61
2023/07/18 05:00:10;;;;;;;4.70;1.60;;;;;;;21.47;78.93;99908.50;5117752;28;20036;-61
2023/07/18 05:02:40;;;;;;;0.73;0.70;;;;;;;21.65;78.39;99912.91;5117686;28;20070;-61
2023/07/18 05:05:10;;;;;;;0.93;0.75;;;;;;;21.78;78.37;99906.31;5118317;28;20154;-61
2023/07/18 05:07:41;;;;;;;0.70;0.70;;;;;;;21.88;77.95;99916.25;5117943;28;20051;-61
2023/07/18 05:10:10;;;;;;;2.22;1.48;;;;;;;22.04;77.54;99916.44;5117570;28;20040;-61
2023/07/18 05:12:39;;;;;;;1.85;0.88;;;;;;;22.17;77.06;99916.78;5117456;28;20125;-59
2023/07/18 05:15:10;;;;;;;1.15;0.93;;;;;;;22.31;76.64;99925.66;5117664;28;20553;-61
2023/07/18 05:17:39;;;;;;;1.10;1.00;;;;;;;22.39;76.37;99918.31;5117770;28;20054;-61
2023/07/18 05:20:11;;;;;;;0.65;0.65;;;;;;;22.46;76.13;99917.13;5117719;27;20028;-60
2023/07/18 05:22:40;;;;;;;1.17;1.10;;;;;;;22.54;75.76;99914.19;5116442;28;20397;-61
2023/07/18 05:25:10;;;;;;;1.88;1.73;;;;;;;22.59;75.61;99925.22;5117341;28;20089;-61
2023/07/18 05:27:40;;;;;;;1.00;0.90;;;;;;;22.67;75.21;99917.97;5117666;28;20044;-61
2023/07/18 05:30:15;;;;;;;0.98;0.80;;;;;;;22.83;75.23;99924.13;5117482;28;20057;-60
2023/07/18 05:32:45;;;;;;;1.38;1.10;;;;;;;22.96;74.56;99924.41;5117458;28;20044;-61
2023/07/18 05:35:14;;;;;;;1.10;1.00;;;;;;;23.06;73.93;99925.66;5117032;28;20048;-61
2023/07/18 05:37:45;;;;;;;0.93;0.88;;;;;;;23.20;73.53;99923.22;5117331;28;20464;-60
2023/07/18 05:40:14;;;;;;;1.35;1.25;;;;;;;23.38;72.97;99926.72;5117308;28;20055;-60
2023/07/18 05:42:45;;;;;;;0.65;0.65;;;;;;;23.31;72.26;99926.16;5117060;28;20035;-61
2023/07/18 05:45:16;;;;;;;2.33;1.57;;;;;;;23.39;71.77;99933.63;5117028;28;20063;-60
2023/07/18 05:47:45;;;;;;;0.90;0.90;;;;;;;23.49;71.05;99940.91;5116729;28;20288;-60
2023/07/18 05:50:14;;;;;;;0.70;0.70;;;;;;;23.48;70.50;99944.44;5116815;28;20055;-60
2023/07/18 05:52:43;;;;;;;0.65;0.60;;;;;;;23.65;69.82;99939.25;5116749;28;20043;-60
2023/07/18 05:55:13;;;;;;;2.58;1.30;;;;;;;23.82;69.15;99939.25;5115990;28;20050;-60
2023/07/18 05:57:42;;;;;;;3.38;0.82;;;;;;;23.90;67.83;99942.28;5115938;28;20040;-60
2023/07/18 06:00:13;;;;;;;0.90;0.80;;;;;;;24.06;67.14;99942.34;5116639;28;20096;-60
2023/07/18 06:02:44;;;;;;;1.17;1.02;;;;;;;24.27;65.47;99951.69;5116891;28;20100;-60
2023/07/18 06:05:13;;;;;;;0.77;0.77;;;;;;;24.47;64.17;99953.25;5116443;28;20485;-60
2023/07/18 06:07:42;;;;;;;1.48;1.13;;;;;;;24.65;61.94;99957.50;5116674;28;20039;-60
2023/07/18 06:10:11;;;;;;;0.63;0.60;;;;;;;24.84;59.83;99958.22;5117017;28;20055;-60
2023/07/18 06:12:39;;;;;;;;;;;;;;;24.96;59.22;99947.09;5116586;28;20059;-61
2023/07/18 06:15:09;;;;;;;1.48;0.85;;;;;;;25.09;57.83;99955.94;5116613;28;20242;-61
2023/07/18 06:17:38;;;;;;;0.60;0.60;;;;;;;25.25;56.74;99948.91;5116068;28;20036;-60
2023/07/18 06:20:12;;;;;;;2.70;1.10;;;;;;;25.37;55.32;99947.38;5115646;28;20036;-60
2023/07/18 06:22:42;;;;;;;2.40;1.70;;;;;;;25.45;54.17;99950.44;5115890;28;20138;-61
2023/07/18 06:25:11;;;;;;;2.28;1.05;;;;;;;25.52;54.11;99956.16;5115454;28;20126;-60
2023/07/18 06:27:40;;;;;;;1.27;1.17;;;;;;;25.71;53.76;99957.63;5116099;28;20451;-60
2023/07/18 06:30:10;;;;;;;4.40;1.60;;;;;;;25.82;53.42;99959.59;5116013;28;20035;-61
2023/07/18 06:32:39;;;;;;;1.08;0.98;;;;;;;25.89;53.15;99960.94;5115996;28;20055;-61
2023/07/18 06:35:10;;;;;;;1.17;1.08;;;;;;;25.96;52.78;99962.25;5116001;28;20412;-61
2023/07/18 06:37:42;;;;;;;0.77;0.77;;;;;;;25.98;52.79;99955.16;5115852;28;20071;-60
2023/07/18 06:40:14;;;;;;;0.50;0.50;;;;;;;26.07;51.96;99964.22;5116144;28;20044;-61
2023/07/18 06:42:42;;;;;;;1.27;1.13;;;;;;;26.05;51.71;99961.72;5115306;28;20079;-61
2023/07/18 06:45:12;;;;;;;1.50;0.95;;;;;;;26.18;51.79;99967.91;5115687;28;20410;-60
2023/07/18 06:47:41;;;;;;;0.60;0.60;;;;;;;26.27;51.04;99972.59;5115297;28;20073;-61
2023/07/18 06:50:13;;;;;;;0.43;0.43;;;;;;;26.35;50.81;99974.75;5115233;28;20455;-61
2023/07/18 06:52:42;;;;;;;0.77;0.77;;;;;;;26.41;50.81;99975.22;5115868;28;20051;-61
2023/07/18 06:55:11;;;;;;;0.60;0.57;;;;;;;26.43;50.51;99978.59;5115605;28;20078;-60
2023/07/18 06:57:40;;;;;;;1.92;1.02;;;;;;;26.54;50.85;99976.16;5115476;28;20048;-60
2023/07/18 07:00:14;;;;;;;1.63;1.20;;;;;;;26.66;50.22;99978.97;5115380;28;20054;-61
2023/07/18 07:02:43;;;;;;;1.00;0.93;;;;;;;26.78;49.98;99979.06;5115412;28;20052;-61
2023/07/18 07:05:14;;;;;;;1.42;1.00;;;;;;;26.81;49.38;99972.78;5115313;28;20558;-61
2023/07/18 07:07:43;;;;;;;1.13;0.90;;;;;;;26.88;49.09;99989.78;5115576;28;20084;-59
2023/07/18 07:10:12;;;;;;;0.60;0.60;;;;;;;26.92;48.24;99975.59;5115114;28;20055;-58
2023/07/18 07:12:41;;;;;;;2.17;1.83;;;;;;;26.97;48.75;99989.25;5115057;28;20081;-61
2023/07/18 07:15:11;;;;;;;0.45;0.45;;;;;;;27.06;48.43;99983.41;5116514;28;20364;-61
2023/07/18 07:17:40;;;;;;;1.05;0.85;;;;;;;27.15;48.62;99988.06;5115739;28;20043;-60
2023/07/18 07:20:12;;;;;;;2.22;1.83;;;;;;;27.28;47.63;99989.78;5115067;28;20059;-61
2023/07/18 07:22:46;;;;;;;1.33;1.10;;;;;;;27.23;46.30;99985.81;5114954;28;20127;-61
2023/07/18 07:25:15;;;;;;;1.60;1.17;;;;;;;27.30;44.84;99988.88;5114912;28;20069;-61
2023/07/18 07:27:44;;;;;;;0.95;0.88;;;;;;;27.35;44.69;99984.16;5115163;28;20440;-60
2023/07/18 07:40:15;;;;;;;0.60;0.60;;;;;;;27.59;42.83;99987.84;5132167;27;20384;-59
2023/07/18 07:42:46;;;;;;;21.02;1.48;;;;;;;27.71;42.10;99987.88;5131972;27;20092;-59
2023/07/18 07:45:15;;;;;;;0.55;0.55;;;;;;;27.86;42.23;99992.09;5132372;27;20055;-59
2023/07/18 07:47:44;;;;;;;;;;;;;;;28.00;41.85;99987.75;5132164;28;20544;-59
2023/07/18 07:50:13;;;;;;;0.68;0.68;;;;;;;27.96;41.02;99983.59;5131794;27;19919;-59
2023/07/18 07:52:42;;;;;;;1.13;0.73;;;;;;;27.87;40.61;99975.41;5131757;28;20532;-59
2023/07/18 07:55:13;;;;;;;0.52;0.52;;;;;;;27.91;40.95;99978.66;5131706;27;20044;-59
2023/07/18 07:57:44;;;;;;;0.65;0.60;;;;;;;27.94;40.16;99978.47;5131964;28;20139;-60
2023/07/18 08:00:14;;;;;;;1.27;0.98;;;;;;;27.98;40.26;99981.72;5131538;28;20476;-60
2023/07/18 08:02:43;;;;;;;4.03;0.80;;;;;;;28.12;40.46;99982.47;5131835;28;20122;-59
2023/07/18 08:05:11;;;;;;;0.38;0.38;;;;;;;28.22;39.91;99987.97;5131481;27;20044;-59
2023/07/18 08:07:42;;;;;;;1.42;1.08;;;;;;;28.18;38.56;99997.00;5131477;28;20036;-59
2023/07/18 08:10:11;;;;;;;4.25;1.73;;;;;;;28.22;38.95;99983.53;5131660;27;20388;-60
2023/07/18 08:12:41;;;;;;;0.70;0.70;;;;;;;28.25;38.60;99995.63;5131616;28;20042;-60
2023/07/18 08:15:11;;;;;;;;;;;;;;;28.31;38.63;99984.72;5132120;27;20039;-59
2023/07/18 08:17:40;;;;;;;0.52;0.52;;;;;;;28.49;38.54;99999.19;5131291;27;19920;-59
2023/07/18 08:20:12;;;;;;;0.50;0.50;;;;;;;28.66;37.49;100004.16;5131139;27;20052;-59
2023/07/18 08:22:41;;;;;;;1.63;1.08;;;;;;;28.70;37.72;99995.09;5131559;27;20051;-59
2023/07/18 08:25:10;;;;;;;3.10;1.10;;;;;;;28.82;37.98;99986.34;5131419;28;20048;-59
2023/07/18 08:27:39;;;;;;;0.60;0.60;;;;;;;28.90;36.75;99985.81;5131029;27;20076;-59
2023/07/18 08:30:09;;;;;;;2.72;1.23;;;;;;;28.83;36.77;99990.66;5131213;28;20048;-59
2023/07/18 08:32:42;;;;;;;0.95;0.60;;;;;;;28.95;36.27;99987.16;5131038;27;20047;-59
2023/07/18 08:35:11;;;;;;;0.55;0.45;;;;;;;28.89;35.98;99987.59;5130978;27;20077;-59
2023/07/18 08:37:40;;;;;;;0.60;0.60;;;;;;;29.01;36.46;99989.34;5131152;27;20405;-61
2023/07/18 08:40:09;;;;;;;;;;;;;;;29.08;35.97;99984.50;5130847;27;20469;-59
2023/07/18 08:42:38;;;;;;;1.98;0.95;;;;;;;29.18;35.89;99970.59;5130763;28;19919;-59
2023/07/18 08:45:08;;;;;;;;;;;;;;;29.24;36.23;99984.25;5131284;28;20120;-59
2023/07/18 08:47:38;;;;;;;1.00;0.90;;;;;;;29.25;36.07;99986.75;5130574;27;19924;-61
2023/07/18 08:50:10;;;;;;;0.40;0.40;;;;;;;29.18;35.65;99988.13;5125387;27;20508;-59
2023/07/18 08:52:40;;;;;;;1.00;0.90;;;;;;;29.16;35.25;99980.34;5117188;28;20101;-61
2023/07/18 08:55:10;;;;;;;0.63;0.63;;;;;;;29.19;35.17;99982.81;5117425;27;20138;-60
2023/07/18 08:57:41;;;;;;;0.70;0.70;;;;;;;29.30;35.81;99975.94;5117021;28;20508;-59
2023/07/18 09:00:11;;;;;;;1.42;1.20;;;;;;;29.43;35.40;99979.31;5117247;28;20100;-60
2023/07/18 09:02:40;;;;;;;1.10;1.05;;;;;;;29.44;35.28;99981.00;5117041;28;20075;-60
2023/07/18 09:05:28;;;;;;;1.23;0.80;;;;;;;29.44;34.76;99975.75;5117139;28;20063;-61
2023/07/18 09:07:57;;;;;;;0.60;0.60;;;;;;;29.39;34.25;99972.63;5116833;28;20553;-60
2023/07/18 09:10:27;;;;;;;1.42;1.15;;;;;;;29.53;34.22;99975.06;5116871;28;20387;-60
2023/07/18 09:12:55;;;;;;;;;;;;;;;29.57;34.02;99972.09;5116988;28;20130;-60
2023/07/18 09:15:24;;;;;;;0.60;0.60;;;;;;;29.64;33.67;99977.72;5116831;28;19942;-60
2023/07/18 09:17:55;;;;;;;0.50;0.50;;;;;;;29.70;33.24;99961.50;5116505;28;20071;-60
2023/07/18 09:20:28;;;;;;;0.70;0.70;;;;;;;29.71;32.83;99966.63;5116345;28;20071;-61
2023/07/18 09:22:57;;;;;;;0.70;0.70;;;;;;;29.63;32.61;99960.28;5116589;28;20055;-60
2023/07/18 09:25:27;;;;;;;1.42;0.95;;;;;;;29.73;33.20;99961.28;5116353;28;20043;-60
2023/07/18 09:27:58;;;;;;;1.20;0.98;;;;;;;29.97;33.39;99954.16;5116261;28;20035;-60
2023/07/18 09:30:30;;;;;;;0.95;0.85;;;;;;;30.14;32.82;99953.69;5116216;28;20096;-60
2023/07/18 09:32:59;;;;;;;1.00;0.95;;;;;;;30.24;32.80;99956.47;5116569;28;20105;-60
2023/07/18 09:35:29;;;;;;;;;;;;;;;30.29;32.73;99959.59;5116724;28;20039;-60
2023/07/18 09:38:00;;;;;;;0.40;0.40;;;;;;;30.09;32.14;99947.94;5115820;28;19962;-60
2023/07/18 09:40:29;;;;;;;4.13;1.13;;;;;;;29.93;32.27;99942.19;5116212;28;20135;-60
2023/07/18 09:43:01;;;;;;;0.63;0.60;;;;;;;29.96;32.58;99936.69;5115917;28;20401;-60
2023/07/18 09:45:31;;;;;;;1.20;1.02;;;;;;;30.10;32.69;99939.09;5115886;28;20500;-60
2023/07/18 09:48:00;;;;;;;0.57;0.57;;;;;;;30.17;32.61;99934.19;5116060;28;20120;-60
2023/07/18 09:50:33;;;;;;;0.65;0.65;;;;;;;30.18;32.98;99936.72;5115852;28;20489;-60
2023/07/18 09:53:06;;;;;;;0.60;0.60;;;;;;;30.27;32.36;99936.00;5115752;28;20044;-60
2023/07/18 09:55:35;;;;;;;0.57;0.57;;;;;;;30.26;31.68;99923.78;5115703;28;20131;-61
2023/07/18 09:58:04;;;;;;;;;;;;;;;30.04;31.68;99933.47;5115036;28;20402;-60
2023/07/18 10:00:35;;;;;;;0.65;0.65;;;;;;;30.16;31.80;99924.63;5115548;27;19927;-60
2023/07/18 10:03:05;;;;;;;0.70;0.60;;;;;;;30.22;31.08;99911.81;5114852;28;20388;-60
2023/07/18 10:05:35;;;;;;;;;;;;;;;30.04;30.97;99918.53;5116211;28;20063;-60
2023/07/18 10:08:06;;;;;;;0.90;0.60;;;;;;;30.15;31.77;99910.63;5115567;27;19930;-61
2023/07/18 10:10:35;;;;;;;0.63;0.60;;;;;;;30.12;31.49;99916.13;5115376;28;20520;-60
2023/07/18 10:13:04;;;;;;;0.40;0.40;;;;;;;30.28;33.18;99895.53;5115492;28;20603;-60
2023/07/18 10:15:52;;;;;;;;;;;;;;;30.27;32.60;99903.56;5115618;28;20078;-61
2023/07/18 10:18:24;;;;;;;0.73;0.60;;;;;;;30.26;32.26;99901.88;5115069;28;20357;-60
2023/07/18 10:21:01;;;;;;;0.60;0.60;;;;;;;30.16;32.22;99903.56;5115223;28;20040;-61
2023/07/18 10:23:40;;;;;;;0.47;0.47;;;;;;;30.12;32.14;99905.59;5115402;28;20078;-60
2023/07/18 10:26:10;;;;;;;0.60;0.60;;;;;;;30.37;33.13;99897.47;5115075;28;20044;-60
2023/07/18 10:28:46;;;;;;;1.55;1.13;;;;;;;30.52;32.60;99896.25;5114932;28;20047;-60
2023/07/18 10:31:29;;;;;;;0.65;0.65;;;;;;;30.52;32.24;99880.44;5115155;28;20036;-61
2023/07/18 10:34:10;;;;;;;0.68;0.68;;;;;;;30.64;31.69;99885.72;5115249;28;20096;-60
2023/07/18 10:36:41;;;;;;;0.47;0.47;;;;;;;30.59;31.12;99882.59;5114750;28;20048;-60
2023/07/18 10:39:12;;;;;;;0.43;0.43;;;;;;;30.62;30.79;99874.44;5114658;27;20058;-61
2023/07/18 10:41:45;;;;;;;1.02;0.95;;;;;;;30.77;30.46;99875.84;5114684;27;20504;-61
2023/07/18 10:44:14;;;;;;;1.00;0.90;;;;;;;30.88;30.35;99874.00;5114762;28;20035;-61
2023/07/18 10:46:44;;;;;;;1.02;0.70;;;;;;;31.04;31.08;99881.53;5114668;28;20049;-60
2023/07/18 10:49:12;;;;;;;0.47;0.47;;;;;;;31.32;31.21;99870.38;5114975;28;20432;-61
2023/07/18 10:51:43;;;;;;;1.02;0.93;;;;;;;31.31;31.11;99876.63;5114882;28;20035;-61
2023/07/18 10:54:12;;;;;;;0.80;0.80;;;;;;;31.27;30.84;99864.63;5114963;28;20043;-60
2023/07/18 10:56:41;;;;;;;0.70;0.70;;;;;;;31.59;31.36;99868.09;5114450;28;20040;-60
2023/07/18 10:59:13;;;;;;;0.60;0.60;;;;;;;31.60;30.93;99868.94;5114319;28;20043;-60
2023/07/18 11:01:43;;;;;;;0.68;0.68;;;;;;;31.71;31.12;99863.56;5114375;28;20043;-60
2023/07/18 11:04:12;;;;;;;;;;;;;;;31.95;31.79;99855.34;5114831;28;20036;-60
2023/07/18 11:06:49;;;;;;;4.47;2.05;;;;;;;31.91;30.95;99849.50;5114319;28;19919;-60
2023/07/18 11:09:18;;;;;;;0.52;0.52;;;;;;;31.91;31.16;99852.16;5114378;28;20051;-61
2023/07/18 11:11:50;;;;;;;0.60;0.60;;;;;;;32.05;31.01;99845.69;5114605;28;20554;-61
2023/07/18 11:14:19;;;;;;;1.05;0.75;;;;;;;31.99;30.72;99852.34;5114308;28;20074;-60
2023/07/18 11:16:48;;;;;;;;;;;;;;;32.16;31.59;99848.22;5113688;28;20040;-60
2023/07/18 11:19:17;;;;;;;0.90;0.50;;;;;;;32.23;31.44;99844.94;5114147;28;19927;-60
2023/07/18 11:21:47;;;;;;;1.02;0.93;;;;;;;32.23;31.12;99846.72;5114179;28;20047;-61
2023/07/18 11:24:16;;;;;;;0.70;0.70;;;;;;;32.16;31.14;99837.66;5114465;28;20142;-60
2023/07/18 11:26:45;;;;;;;0.40;0.40;;;;;;;32.16;30.44;99838.50;5114144;28;20043;-61
2023/07/18 11:29:14;;;;;;;;;;;;;;;32.31;31.40;99829.25;5114467;28;20044;-61
2023/07/18 11:31:45;;;;;;;0.80;0.80;;;;;;;32.21;31.86;99831.03;5114019;28;19984;-60
2023/07/18 11:34:23;;;;;;;0.55;0.55;;;;;;;32.30;31.65;99829.34;5114390;28;20048;-60
2023/07/18 11:36:54;;;;;;;0.50;0.50;;;;;;;32.38;31.54;99832.16;5112775;28;20044;-60
2023/07/18 11:39:24;;;;;;;7.28;1.77;;;;;;;32.57;32.38;99824.31;5113844;28;20062;-60
2023/07/18 11:42:08;;;;;;;0.70;0.70;;;;;;;32.26;31.59;99814.75;5112910;28;20587;-59
2023/07/18 11:44:43;;;;;;;0.95;0.65;;;;;;;32.36;32.07;99810.34;5114201;28;20485;-60
2023/07/18 11:47:12;;;;;;;0.43;0.43;;;;;;;32.45;30.97;99814.78;5112737;28;20130;-59
2023/07/18 11:49:44;;;;;;;0.90;0.90;;;;;;;32.74;32.50;99801.63;5108687;28;20050;-60
2023/07/18 11:52:19;;;;;;;0.65;0.65;;;;;;;32.99;32.56;99795.81;5110242;28;20048;-61
2023/07/18 11:54:48;;;;;;;2.47;1.10;;;;;;;32.97;31.96;99792.47;5114178;28;20047;-59
2023/07/18 11:57:17;;;;;;;0.68;0.68;;;;;;;32.74;30.81;99791.91;5114147;28;20039;-60
2023/07/18 11:59:46;;;;;;;0.50;0.50;;;;;;;32.63;31.17;99784.13;5113853;28;20036;-60